createdAt,value
2023-08-05T00:00:49.042Z,100800.50
2023-08-05T00:03:17.320Z,100809.88
2023-08-05T00:05:45.727Z,100801.41
2023-08-05T00:08:14.090Z,100794.88
2023-08-05T00:10:48.881Z,100799.50
2023-08-05T00:13:17.247Z,100793.00
2023-08-05T00:15:45.586Z,100782.84
2023-08-05T00:18:13.918Z,100781.06
2023-08-05T00:20:42.225Z,100781.72
2023-08-05T00:23:10.524Z,100786.72
2023-08-05T00:25:38.792Z,100783.66
2023-08-05T00:28:07.065Z,100785.47
2023-08-05T00:30:35.386Z,100788.81
2023-08-05T00:33:03.689Z,100788.81
2023-08-05T00:35:31.979Z,100791.78
2023-08-05T00:38:00.276Z,100777.84
2023-08-05T00:40:28.561Z,100777.72
2023-08-05T00:42:56.806Z,100775.97
2023-08-05T00:45:25.307Z,100779.56
2023-08-05T00:47:53.933Z,100773.88
2023-08-05T00:50:23.382Z,100768.63
2023-08-05T00:52:52.478Z,100766.19
2023-08-05T00:55:21.064Z,100768.03
2023-08-05T00:57:49.365Z,100768.50
2023-08-05T01:00:17.651Z,100765.25
2023-08-05T01:02:45.946Z,100768.84
2023-08-05T01:05:14.344Z,100773.59
2023-08-05T01:07:44.127Z,100768.03
2023-08-05T01:10:12.993Z,100769.97
2023-08-05T01:12:43.047Z,100769.16
2023-08-05T01:15:11.416Z,100759.66
2023-08-05T01:17:39.852Z,100764.41
2023-08-05T01:20:11.417Z,100765.56
2023-08-05T01:22:45.170Z,100769.97
2023-08-05T01:25:32.725Z,100769.63
2023-08-05T01:28:03.329Z,100770.44
2023-08-05T01:30:33.203Z,100777.19
2023-08-05T01:33:05.118Z,100772.41
2023-08-05T01:35:33.598Z,100773.09
2023-08-05T01:38:01.951Z,100765.56
2023-08-05T01:40:30.345Z,100770.31
2023-08-05T01:43:03.767Z,100762.78
2023-08-05T01:45:34.620Z,100760.66
2023-08-05T01:48:02.872Z,100759.84
2023-08-05T01:50:31.667Z,100763.47
2023-08-05T01:52:59.996Z,100763.47
2023-08-05T01:55:29.124Z,100765.06
2023-08-05T01:57:57.385Z,100767.53
2023-08-05T02:00:25.760Z,100769.16
2023-08-05T02:02:54.299Z,100763.59
2023-08-05T02:05:22.932Z,100759.66
2023-08-05T02:07:51.356Z,100751.66
2023-08-05T02:10:19.731Z,100758.34
2023-08-05T02:12:47.990Z,100759.84
2023-08-05T02:15:16.328Z,100763.78
2023-08-05T02:17:44.602Z,100759.38
2023-08-05T02:20:13.084Z,100767.25
2023-08-05T02:22:41.393Z,100762.81
2023-08-05T02:25:09.741Z,100761.53
2023-08-05T02:27:38.083Z,100770.69
2023-08-05T02:30:07.500Z,100765.47
2023-08-05T02:32:36.140Z,100764.53
2023-08-05T02:35:04.798Z,100769.97
2023-08-05T02:37:33.111Z,100769.81
2023-08-05T02:40:01.385Z,100769.69
2023-08-05T02:42:29.728Z,100765.44
2023-08-05T02:44:59.351Z,100763.31
2023-08-05T02:47:27.719Z,100765.50
2023-08-05T02:49:57.462Z,100759.78
2023-08-05T02:52:26.475Z,100761.56
2023-08-05T02:54:54.845Z,100756.19
2023-08-05T02:57:23.114Z,100753.59
2023-08-05T02:59:51.479Z,100760.47
2023-08-05T03:02:19.725Z,100751.19
2023-08-05T03:04:47.974Z,100747.44
2023-08-05T03:07:16.257Z,100746.94
2023-08-05T03:09:44.620Z,100748.28
2023-08-05T03:12:13.148Z,100737.81
2023-08-05T03:14:41.453Z,100745.19
2023-08-05T03:17:11.894Z,100739.13
2023-08-05T03:19:40.755Z,100735.88
2023-08-05T03:22:10.263Z,100733.75
2023-08-05T03:24:43.584Z,100727.72
2023-08-05T03:27:11.949Z,100726.41
2023-08-05T03:29:41.837Z,100725.94
2023-08-05T03:32:12.540Z,100723.31
2023-08-05T03:34:41.833Z,100721.19
2023-08-05T03:37:10.313Z,100726.94
2023-08-05T03:39:39.137Z,100733.72
2023-08-05T03:42:07.727Z,68092.72
2023-08-05T03:44:36.169Z,68092.72
2023-08-05T03:47:04.733Z,68092.72
2023-08-05T03:49:33.007Z,68092.72
2023-08-05T03:52:01.311Z,68092.72
2023-08-05T03:54:29.635Z,68092.72
2023-08-05T03:57:00.259Z,68092.72
2023-08-05T03:59:29.100Z,68092.72
2023-08-05T04:01:59.983Z,68092.72
2023-08-05T04:04:30.351Z,68092.72
2023-08-05T04:06:58.656Z,68092.72
2023-08-05T04:09:26.936Z,68092.72
2023-08-05T04:11:58.499Z,68092.72
2023-08-05T04:14:26.820Z,68092.72
2023-08-05T04:16:56.349Z,68092.72
2023-08-05T04:19:25.106Z,68092.72
2023-08-05T04:21:53.914Z,68092.72
2023-08-05T04:24:25.291Z,68092.72
2023-08-05T04:26:54.364Z,68092.72
2023-08-05T04:29:25.867Z,68092.72
2023-08-05T04:31:54.574Z,68092.72
2023-08-05T04:34:23.085Z,68092.72
2023-08-05T04:36:53.249Z,68092.72
2023-08-05T04:39:22.784Z,68092.72
2023-08-05T04:41:51.083Z,68092.72
2023-08-05T04:44:19.484Z,68092.72
2023-08-05T04:46:47.929Z,68092.72
2023-08-05T04:49:16.287Z,68092.72
2023-08-05T04:51:44.574Z,68092.72
2023-08-05T04:54:12.825Z,68092.72
2023-08-05T04:56:41.188Z,68092.72
2023-08-05T04:59:09.431Z,68092.72
2023-08-05T05:01:37.705Z,68092.72
2023-08-05T05:04:06.014Z,68092.72
2023-08-05T05:06:34.335Z,68092.72
2023-08-05T05:09:02.645Z,68092.72
2023-08-05T05:11:30.963Z,68092.72
2023-08-05T05:13:59.258Z,68092.72
2023-08-05T05:16:27.771Z,68092.72
2023-08-05T05:18:56.054Z,68092.72
2023-08-05T05:21:24.359Z,68092.72
2023-08-05T05:23:52.638Z,68092.72
2023-08-05T05:26:20.929Z,68092.72
2023-08-05T05:28:49.175Z,68092.72
2023-08-05T05:31:17.444Z,68092.72
2023-08-05T05:33:48.690Z,68092.72
2023-08-05T05:36:17.004Z,68092.72
2023-08-05T05:38:45.289Z,68092.72
2023-08-05T05:41:13.572Z,68092.72
2023-08-05T05:43:41.848Z,68092.72
2023-08-05T05:46:10.730Z,68092.72
2023-08-05T05:48:39.035Z,68092.72
2023-08-05T05:51:07.299Z,68092.72
2023-08-05T05:53:35.827Z,68092.72
2023-08-05T05:56:06.079Z,68092.72
2023-08-05T05:58:36.313Z,68092.72
2023-08-05T06:01:04.707Z,68092.72
2023-08-05T06:03:35.221Z,68092.72
2023-08-05T06:06:03.751Z,68092.72
2023-08-05T06:08:32.342Z,68092.72
2023-08-05T06:11:08.237Z,68092.72
2023-08-05T06:13:36.605Z,68092.72
2023-08-05T06:16:05.687Z,68092.72
2023-08-05T06:18:34.016Z,68092.72
2023-08-05T06:21:27.269Z,68092.72
2023-08-05T06:23:55.637Z,68092.72
2023-08-05T06:26:40.328Z,68092.72
2023-08-05T06:29:08.661Z,68092.72
2023-08-05T06:31:39.958Z,68092.72
2023-08-05T06:34:08.251Z,68092.72
2023-08-05T06:36:36.513Z,68092.72
2023-08-05T06:39:04.836Z,68092.72
2023-08-05T06:41:33.076Z,68092.72
2023-08-05T06:44:01.358Z,68092.72
2023-08-05T06:46:32.671Z,68092.72
2023-08-05T06:49:01.043Z,68092.72
2023-08-05T06:51:29.425Z,68092.72
2023-08-05T06:53:57.791Z,68092.72
2023-08-05T06:56:26.156Z,68092.72
2023-08-05T06:58:54.394Z,68092.72
2023-08-05T07:01:22.886Z,68092.72
2023-08-05T07:03:51.516Z,68092.72
2023-08-05T07:06:24.574Z,68092.72
2023-08-05T07:08:52.947Z,68092.72
2023-08-05T07:11:21.755Z,68092.72
2023-08-05T07:13:51.674Z,68092.72
2023-08-05T07:16:20.080Z,68092.72
2023-08-05T07:19:07.567Z,68092.72
2023-08-05T07:21:36.967Z,68092.72
2023-08-05T07:24:05.439Z,68092.72
2023-08-05T07:26:35.816Z,68092.72
2023-08-05T07:29:04.139Z,68092.72
2023-08-05T07:31:57.509Z,68092.72
2023-08-05T07:34:31.585Z,68092.72
2023-08-05T07:37:00.564Z,68092.72
2023-08-05T07:39:35.021Z,68092.72
2023-08-05T07:42:06.996Z,68092.72
2023-08-05T07:44:58.997Z,68092.72
2023-08-05T07:47:53.132Z,100621.94
2023-08-05T07:50:23.925Z,100616.69
2023-08-05T07:53:20.961Z,100621.38
2023-08-05T07:55:49.477Z,100614.81
2023-08-05T07:58:20.494Z,100601.78
2023-08-05T08:00:49.037Z,100603.41
2023-08-05T08:03:17.330Z,100601.06
2023-08-05T08:05:45.674Z,100602.78
2023-08-05T08:08:13.978Z,100591.00
2023-08-05T08:11:07.061Z,100594.44
2023-08-05T08:13:48.746Z,100586.22
2023-08-05T08:16:42.087Z,100587.16
2023-08-05T08:19:19.967Z,100594.69
2023-08-05T08:22:13.298Z,100583.78
2023-08-05T08:24:41.681Z,100581.34
2023-08-05T08:27:10.040Z,100571.22
2023-08-05T08:29:49.705Z,100572.94
2023-08-05T08:32:18.064Z,68092.72
2023-08-05T08:34:46.288Z,68092.72
2023-08-05T08:37:14.592Z,68092.72
2023-08-05T08:39:42.975Z,68092.72
2023-08-05T08:42:11.286Z,68092.72
2023-08-05T08:44:40.973Z,68092.72
2023-08-05T08:47:09.466Z,68092.72
2023-08-05T08:49:38.448Z,68092.72
2023-08-05T08:52:08.633Z,68092.72
2023-08-05T08:54:37.207Z,68092.72
2023-08-05T08:57:06.732Z,68092.72
2023-08-05T08:59:35.198Z,68092.72
2023-08-05T09:02:04.795Z,68092.72
2023-08-05T09:04:36.714Z,68092.72
2023-08-05T09:07:05.478Z,68092.72
2023-08-05T09:09:34.929Z,68092.72
2023-08-05T09:12:04.311Z,68092.72
2023-08-05T09:14:33.108Z,68092.72
2023-08-05T09:17:03.634Z,68092.72
2023-08-05T09:19:32.338Z,68092.72
2023-08-05T09:22:06.811Z,68092.72
2023-08-05T09:24:36.263Z,68092.72
2023-08-05T09:27:18.896Z,68092.72
2023-08-05T09:29:50.729Z,68092.72
2023-08-05T09:32:37.038Z,68092.72
2023-08-05T09:35:30.924Z,68092.72
2023-08-05T09:38:01.543Z,68092.72
2023-08-05T09:40:37.804Z,68092.72
2023-08-05T09:43:09.097Z,68092.72
2023-08-05T09:45:39.897Z,68092.72
2023-08-05T09:48:35.887Z,68092.72
2023-08-05T09:51:07.707Z,68092.72
2023-08-05T09:54:00.073Z,68092.72
2023-08-05T09:56:31.570Z,68092.72
2023-08-05T09:59:16.408Z,68092.72
2023-08-05T10:01:50.154Z,68092.72
2023-08-05T10:04:22.122Z,68092.72
2023-08-05T10:06:52.914Z,68092.72
2023-08-05T10:09:21.411Z,68092.72
2023-08-05T10:11:50.308Z,68092.72
2023-08-05T10:14:23.994Z,68092.72
2023-08-05T10:16:53.377Z,68092.72
2023-08-05T10:19:29.997Z,68092.72
2023-08-05T10:22:11.823Z,68092.72
2023-08-05T10:25:02.877Z,68092.72
2023-08-05T10:27:35.861Z,68092.72
2023-08-05T10:30:20.622Z,68092.72
2023-08-05T10:32:54.797Z,68092.72
2023-08-05T10:35:44.118Z,68092.72
2023-08-05T10:38:43.907Z,68092.72
2023-08-05T11:40:57.240Z,100304.66
2023-08-05T13:23:40.820Z,100202.84
2023-08-05T13:26:09.325Z,100198.63
2023-08-05T13:28:37.645Z,100192.34
2023-08-05T13:31:06.641Z,100187.53
2023-08-05T13:33:36.951Z,100186.59
2023-08-05T13:36:06.907Z,100182.09
2023-08-05T13:38:35.255Z,100174.63
2023-08-05T13:41:03.575Z,100167.28
2023-08-05T13:43:32.065Z,100161.09
2023-08-05T13:46:03.237Z,100142.38
2023-08-05T13:48:56.394Z,100130.03
2023-08-05T13:51:42.147Z,100124.41
2023-08-05T13:54:16.305Z,100121.94
2023-08-05T13:56:55.016Z,100109.13
2023-08-05T13:59:23.389Z,100106.25
2023-08-05T16:02:44.282Z,100036.53
2023-08-05T16:05:13.346Z,100042.59
2023-08-05T16:07:41.705Z,100043.41
2023-08-05T16:10:10.399Z,100038.56
2023-08-05T16:12:38.819Z,100060.34
2023-08-05T16:15:07.769Z,100091.72
2023-08-05T16:17:36.110Z,100084.47
2023-08-05T16:20:05.099Z,100117.78
2023-08-05T16:22:33.598Z,100115.75
2023-08-05T16:25:03.585Z,100112.31
2023-08-05T16:27:32.461Z,100119.25
2023-08-05T16:30:00.739Z,100145.38
2023-08-05T16:32:29.401Z,100156.22
2023-08-05T16:34:58.956Z,100169.53
2023-08-05T16:37:27.271Z,100146.00
2023-08-05T16:39:55.608Z,100146.00
2023-08-05T16:42:23.906Z,68092.72
2023-08-05T16:44:52.239Z,68092.72
2023-08-05T16:47:20.528Z,68092.72
2023-08-05T16:49:48.807Z,68092.72
2023-08-05T16:52:17.316Z,68092.72
2023-08-05T16:54:47.253Z,68092.72
2023-08-05T16:57:15.621Z,68092.72
2023-08-05T16:59:43.892Z,68092.72
2023-08-05T17:02:12.171Z,68092.72
2023-08-05T17:04:40.481Z,68092.72
2023-08-05T17:07:08.767Z,68092.72
2023-08-05T17:09:37.090Z,68092.72
2023-08-05T17:12:05.738Z,68092.72
2023-08-05T17:14:34.137Z,68092.72
2023-08-05T17:17:03.448Z,68092.72
2023-08-05T17:19:32.684Z,68092.72
2023-08-05T17:22:01.056Z,68092.72
2023-08-05T17:24:29.394Z,68092.72
2023-08-05T17:26:57.669Z,68092.72
2023-08-05T17:29:26.054Z,68092.72
2023-08-05T17:31:54.542Z,68092.72
2023-08-05T17:34:23.021Z,68092.72
2023-08-05T17:36:51.313Z,68092.72
2023-08-05T17:39:19.888Z,68092.72
2023-08-05T17:41:48.171Z,68092.72
2023-08-05T17:44:16.931Z,68092.72
2023-08-05T17:46:48.138Z,68092.72
2023-08-05T17:49:16.456Z,68092.72
2023-08-05T17:51:44.880Z,68092.72
2023-08-05T17:54:13.808Z,68092.72
2023-08-05T17:56:43.013Z,68092.72
2023-08-05T17:59:13.859Z,68092.72
2023-08-05T18:01:42.339Z,68092.72
2023-08-05T18:04:11.460Z,68092.72
2023-08-05T18:06:39.770Z,68092.72
2023-08-05T18:09:08.195Z,68092.72
2023-08-05T18:11:36.562Z,68092.72
2023-08-05T18:14:04.893Z,68092.72
2023-08-05T18:16:33.365Z,68092.72
2023-08-05T18:19:01.848Z,68092.72
2023-08-05T18:21:30.136Z,68092.72
2023-08-05T18:23:58.567Z,68092.72
2023-08-05T18:26:26.897Z,68092.72
2023-08-05T18:28:55.191Z,68092.72
2023-08-05T18:31:23.557Z,68092.72
2023-08-05T18:33:52.264Z,68092.72
2023-08-05T18:36:22.075Z,68092.72
2023-08-05T18:38:50.381Z,68092.72
2023-08-05T18:41:18.644Z,100054.09
2023-08-05T18:43:46.953Z,100051.53
2023-08-05T18:46:15.233Z,100063.63
2023-08-05T18:48:43.648Z,100065.25
2023-08-05T18:51:11.987Z,100068.34
2023-08-05T18:53:41.300Z,100069.97
2023-08-05T18:56:11.514Z,100071.88
2023-08-05T18:58:39.827Z,100065.19
2023-08-05T19:01:08.727Z,100058.03
2023-08-05T19:03:38.534Z,100057.97
2023-08-05T19:06:06.849Z,100061.56
2023-08-05T19:08:35.223Z,100060.25
2023-08-05T19:11:03.486Z,100059.53
2023-08-05T19:13:31.775Z,100057.03
2023-08-05T19:16:04.290Z,100042.78
2023-08-05T19:18:36.331Z,100044.09
2023-08-05T19:21:09.897Z,100041.00
2023-08-05T19:23:38.217Z,100037.06
2023-08-05T19:26:10.058Z,100039.44
2023-08-05T19:28:38.841Z,100032.50
2023-08-05T19:31:10.509Z,100026.44
2023-08-05T19:33:41.863Z,100025.28
2023-08-05T19:36:15.917Z,100022.47
2023-08-05T19:38:45.439Z,100033.56
2023-08-05T19:41:13.865Z,100027.28
2023-08-05T19:43:42.553Z,100032.41
2023-08-05T19:46:13.823Z,100035.09
2023-08-05T19:48:45.066Z,100027.28
2023-08-05T19:51:15.077Z,100019.97
2023-08-05T19:53:44.583Z,100026.44
2023-08-05T19:56:12.933Z,100022.03
2023-08-05T19:58:41.585Z,100019.91
2023-08-05T20:01:10.556Z,100009.97
2023-08-05T20:03:40.046Z,100002.78
2023-08-05T20:06:08.848Z,100001.25
2023-08-05T20:08:37.183Z,100000.44
2023-08-05T20:11:05.635Z,100001.00
2023-08-05T20:13:33.906Z,99993.06
2023-08-05T20:16:03.062Z,99988.50
2023-08-05T20:18:31.440Z,99987.09
2023-08-05T20:21:00.046Z,99987.84
2023-08-05T20:23:29.899Z,99977.94
2023-08-05T20:25:59.520Z,99966.75
2023-08-05T20:28:27.824Z,99963.97
2023-08-05T20:30:56.239Z,99973.44
2023-08-05T20:33:24.538Z,99961.91
2023-08-05T20:35:52.881Z,99957.97
2023-08-05T20:38:21.453Z,99947.81
2023-08-05T20:40:49.763Z,99949.41
2023-08-05T20:43:18.097Z,99943.03
2023-08-05T20:45:46.358Z,99942.97
2023-08-05T20:48:15.056Z,99951.25
2023-08-05T20:50:43.397Z,99949.63
2023-08-05T20:53:13.307Z,99945.63
2023-08-05T20:55:41.629Z,99942.06
2023-08-05T20:58:10.031Z,99926.88
2023-08-05T21:00:40.044Z,99925.63
2023-08-05T21:03:08.657Z,99915.66
2023-08-05T21:05:37.165Z,99918.72
2023-08-05T21:08:05.636Z,99906.75
2023-08-05T21:10:33.881Z,99905.94
2023-08-05T21:13:02.142Z,99908.28
2023-08-05T21:15:30.497Z,99909.31
2023-08-05T21:17:58.938Z,99897.34
2023-08-05T21:20:27.196Z,99899.31
2023-08-05T21:22:55.456Z,99902.50
2023-08-05T21:25:28.473Z,99907.97
2023-08-05T21:27:56.744Z,99914.31
2023-08-05T21:30:26.262Z,99907.63
2023-08-05T21:32:57.233Z,99910.34
2023-08-05T21:35:25.540Z,99904.84
2023-08-05T21:37:54.022Z,99909.53
2023-08-05T21:40:22.315Z,99906.47
2023-08-05T21:42:50.642Z,99899.72
2023-08-05T21:45:19.005Z,99890.53
2023-08-05T21:47:47.289Z,99879.22
2023-08-05T21:50:15.734Z,99877.75
2023-08-05T21:52:44.844Z,99877.75
2023-08-05T21:55:13.111Z,99877.75
2023-08-05T21:57:41.800Z,99882.16
2023-08-05T22:00:13.391Z,99882.97
2023-08-05T22:02:42.687Z,99872.97
2023-08-05T22:05:11.159Z,99877.59
2023-08-05T22:07:39.461Z,99880.56
2023-08-05T22:10:08.246Z,99880.97
2023-08-05T22:12:36.556Z,99882.97
2023-08-05T22:15:06.772Z,99883.78
2023-08-05T22:17:35.199Z,99885.38
2023-08-05T22:20:04.540Z,99885.75
2023-08-05T22:22:33.253Z,99888.03
2023-08-05T22:25:02.786Z,99884.06
2023-08-05T22:27:31.463Z,99875.69
2023-08-05T22:29:59.948Z,99879.94
2023-08-05T22:32:28.274Z,99876.84
2023-08-05T22:34:56.598Z,99878.50
2023-08-05T22:37:25.662Z,99876.00
2023-08-05T22:39:54.389Z,99873.94
2023-08-05T22:42:23.274Z,99874.81
2023-08-05T22:44:55.235Z,99870.41
2023-08-05T22:47:23.979Z,99867.63
2023-08-05T22:49:52.455Z,99862.47
2023-08-05T22:52:20.792Z,99861.69
2023-08-05T22:54:49.151Z,99868.84
2023-08-05T22:57:17.588Z,99860.84
2023-08-05T22:59:45.870Z,99856.91
2023-08-05T23:02:14.222Z,99851.31
2023-08-05T23:04:42.465Z,99848.53
2023-08-05T23:07:10.764Z,99845.75
2023-08-05T23:09:39.087Z,99839.38
2023-08-05T23:12:08.181Z,99837.38
2023-08-05T23:14:36.523Z,99838.16
2023-08-05T23:17:04.917Z,99828.22
2023-08-05T23:19:33.247Z,99831.78
2023-08-05T23:22:01.514Z,99825.84
2023-08-05T23:24:29.901Z,99827.47
2023-08-05T23:26:58.170Z,99827.47
2023-08-05T23:29:27.763Z,99826.94
2023-08-05T23:31:56.085Z,99823.28
2023-08-05T23:34:24.396Z,99811.84
2023-08-05T23:36:54.332Z,99809.13
2023-08-05T23:39:22.633Z,99809.47
2023-08-05T23:41:51.357Z,99807.50
2023-08-05T23:44:19.807Z,99805.72
2023-08-05T23:46:48.143Z,99809.03
2023-08-05T23:49:16.619Z,99802.75
2023-08-05T23:51:44.935Z,99799.59
2023-08-05T23:54:13.282Z,99816.38
2023-08-05T23:56:41.568Z,99809.19
2023-08-05T23:59:09.826Z,99807.56
